createdAt,value
2023-04-29T03:01:26.153Z,12.50
2023-04-29T03:03:55.063Z,12.50
2023-04-29T03:06:23.364Z,12.60
2023-04-29T03:08:52.553Z,12.60
2023-04-29T03:11:20.417Z,12.60
2023-04-29T03:13:48.445Z,12.60
2023-04-29T03:16:17.011Z,12.60
2023-04-29T03:18:47.920Z,12.60
2023-04-29T03:21:15.869Z,12.50
2023-04-29T03:23:44.774Z,12.40
2023-04-29T03:26:18.986Z,12.40
2023-04-29T03:28:47.256Z,12.40
2023-04-29T03:31:16.473Z,12.40
2023-04-29T03:33:44.750Z,12.50
2023-04-29T03:36:14.282Z,12.50
2023-04-29T03:38:51.874Z,12.60
2023-04-29T03:41:20.046Z,12.60
2023-04-29T03:43:48.939Z,12.70
2023-04-29T03:46:17.124Z,12.70
2023-04-29T03:48:46.242Z,12.70
2023-04-29T03:51:16.219Z,12.70
2023-04-29T03:53:44.222Z,12.80
2023-04-29T03:56:12.849Z,12.80
2023-04-29T03:58:41.319Z,12.80
2023-04-29T04:01:09.519Z,12.90
2023-04-29T04:03:44.564Z,12.90
2023-04-29T04:06:12.657Z,12.90
2023-04-29T04:08:42.359Z,12.90
2023-04-29T04:11:15.543Z,12.80
2023-04-29T04:13:47.838Z,12.70
2023-04-29T04:16:16.309Z,12.80
2023-04-29T04:18:44.183Z,12.70
2023-04-29T04:21:13.417Z,12.70
2023-04-29T04:23:46.066Z,12.60
2023-04-29T04:26:17.077Z,12.50
2023-04-29T04:28:59.792Z,12.50
2023-04-29T04:31:36.933Z,12.40
2023-04-29T04:34:04.860Z,12.40
2023-04-29T04:36:34.274Z,12.40
2023-04-29T04:39:03.527Z,12.40
2023-04-29T04:41:33.140Z,12.40
2023-04-29T04:44:02.149Z,12.40
2023-04-29T04:46:36.863Z,12.40
2023-04-29T04:49:13.847Z,12.40
2023-04-29T04:51:49.442Z,12.40
2023-04-29T04:54:18.679Z,12.40
2023-04-29T04:56:48.323Z,12.50
2023-04-29T04:59:16.183Z,12.50
2023-04-29T05:01:44.619Z,12.50
2023-04-29T05:04:12.672Z,12.50
2023-04-29T05:06:40.817Z,12.60
2023-04-29T05:09:08.777Z,12.60
2023-04-29T05:11:38.394Z,12.60
2023-04-29T05:14:10.836Z,12.70
2023-04-29T05:16:38.734Z,12.70
2023-04-29T05:19:06.804Z,12.70
2023-04-29T05:21:38.370Z,12.80
2023-04-29T05:24:07.354Z,12.70
2023-04-29T05:26:35.377Z,12.70
2023-04-29T05:29:04.603Z,12.80
2023-04-29T05:31:39.558Z,12.80
2023-04-29T05:34:08.296Z,12.80
2023-04-29T05:36:37.265Z,12.90
2023-04-29T05:39:05.243Z,12.90
2023-04-29T05:41:33.157Z,13.00
2023-04-29T05:44:22.748Z,13.00
2023-04-29T05:46:51.679Z,13.00
2023-04-29T05:49:20.389Z,13.00
2023-04-29T05:51:48.232Z,13.00
2023-04-29T05:54:16.623Z,13.00
2023-04-29T05:56:46.123Z,12.90
2023-04-29T05:59:14.780Z,13.00
2023-04-29T06:01:48.528Z,13.10
2023-04-29T06:04:16.827Z,13.10
2023-04-29T06:07:05.046Z,13.10
2023-04-29T06:09:57.181Z,13.10
2023-04-29T06:12:26.586Z,13.10
2023-04-29T06:14:54.720Z,13.10
2023-04-29T06:17:24.195Z,13.10
2023-04-29T06:19:53.531Z,13.00
2023-04-29T06:22:21.850Z,13.00
2023-04-29T06:24:52.684Z,13.10
2023-04-29T06:27:28.217Z,13.10
2023-04-29T06:29:56.495Z,13.20
2023-04-29T06:32:25.718Z,13.20
2023-04-29T06:34:53.966Z,13.30
2023-04-29T06:40:29.090Z,13.40
2023-04-29T06:43:23.953Z,13.40
2023-04-29T06:46:12.387Z,13.50
2023-04-29T06:48:47.064Z,13.60
2023-04-29T06:51:16.092Z,13.50
2023-04-29T06:53:43.954Z,13.50
2023-04-29T06:56:14.589Z,13.60
2023-04-29T06:58:44.159Z,13.50
2023-04-29T07:01:12.115Z,13.50
2023-04-29T07:03:40.063Z,13.40
2023-04-29T07:06:09.650Z,13.40
2023-04-29T07:08:37.514Z,13.30
2023-04-29T07:11:05.457Z,13.20
2023-04-29T07:13:33.420Z,13.20
2023-04-29T07:16:01.318Z,13.20
2023-04-29T07:18:29.201Z,13.30
2023-04-29T07:21:02.304Z,13.40
2023-04-29T07:23:31.724Z,13.50
2023-04-29T07:25:59.696Z,13.60
2023-04-29T07:28:27.557Z,13.70
2023-04-29T07:30:55.434Z,13.70
2023-04-29T07:33:24.131Z,13.60
2023-04-29T07:35:52.411Z,13.40
2023-04-29T07:38:21.384Z,13.50
2023-04-29T07:40:50.587Z,13.60
2023-04-29T07:43:18.594Z,13.60
2023-04-29T07:45:46.470Z,13.60
2023-04-29T07:48:14.377Z,13.60
2023-04-29T07:50:42.770Z,13.70
2023-04-29T07:53:11.247Z,13.80
2023-04-29T07:55:39.238Z,13.70
2023-04-29T07:58:09.038Z,13.60
2023-04-29T08:00:36.970Z,13.60
2023-04-29T08:03:06.735Z,13.50
2023-04-29T08:05:35.070Z,13.50
2023-04-29T08:08:03.218Z,13.60
2023-04-29T08:10:31.178Z,13.50
2023-04-29T08:12:59.085Z,13.40
2023-04-29T08:15:28.573Z,13.40
2023-04-29T08:17:56.489Z,13.40
2023-04-29T08:20:24.363Z,13.40
2023-04-29T08:22:52.252Z,13.50
2023-04-29T08:25:20.305Z,13.50
2023-04-29T08:27:48.157Z,13.50
2023-04-29T08:30:16.204Z,13.50
2023-04-29T08:32:45.395Z,13.30
2023-04-29T08:35:13.199Z,13.30
2023-04-29T08:37:41.363Z,13.30
2023-04-29T08:40:10.351Z,13.30
2023-04-29T08:42:38.973Z,13.30
2023-04-29T08:45:07.345Z,13.20
2023-04-29T08:47:35.485Z,13.30
2023-04-29T08:50:06.486Z,13.20
2023-04-29T08:52:34.597Z,13.10
2023-04-29T08:55:03.297Z,13.20
2023-04-29T08:57:39.438Z,13.10
2023-04-29T09:00:10.130Z,13.10
2023-04-29T09:02:42.543Z,13.20
2023-04-29T09:05:12.135Z,13.20
2023-04-29T09:07:40.726Z,13.30
2023-04-29T09:10:09.552Z,13.30
2023-04-29T09:12:37.414Z,13.40
2023-04-29T09:15:05.714Z,13.40
2023-04-29T09:17:43.353Z,13.40
2023-04-29T09:20:30.949Z,13.50
2023-04-29T09:23:01.175Z,13.50
2023-04-29T09:25:29.614Z,13.40
2023-04-29T09:27:57.591Z,13.50
2023-04-29T09:30:26.674Z,13.60
2023-04-29T09:33:07.187Z,13.40
2023-04-29T09:35:37.150Z,13.60
2023-04-29T09:38:11.932Z,13.60
2023-04-29T09:40:56.737Z,13.50
2023-04-29T09:43:26.164Z,13.70
2023-04-29T09:45:54.475Z,13.80
2023-04-29T09:48:22.408Z,13.80
2023-04-29T09:51:03.168Z,13.80
2023-04-29T09:53:32.415Z,13.70
2023-04-29T09:56:01.762Z,13.70
2023-04-29T09:58:34.067Z,13.80
2023-04-29T10:01:03.368Z,13.80
2023-04-29T10:03:35.541Z,13.90
2023-04-29T10:06:06.542Z,13.80
2023-04-29T10:08:35.666Z,13.80
2023-04-29T10:11:05.768Z,13.80
2023-04-29T10:13:38.317Z,13.60
2023-04-29T10:16:16.551Z,13.50
2023-04-29T10:18:50.105Z,13.50
2023-04-29T10:21:22.338Z,13.60
2023-04-29T10:23:51.336Z,13.60
2023-04-29T10:26:20.518Z,13.60
2023-04-29T10:28:51.567Z,13.60
2023-04-29T10:31:22.727Z,13.70
2023-04-29T10:33:51.790Z,13.70
2023-04-29T10:36:22.518Z,13.70
2023-04-29T10:38:53.921Z,13.70
2023-04-29T10:41:24.699Z,13.80
2023-04-29T10:43:53.428Z,13.90
2023-04-29T10:46:23.672Z,14.00
2023-04-29T10:48:55.410Z,14.00
2023-04-29T10:51:33.176Z,13.90
2023-04-29T10:54:03.217Z,13.90
2023-04-29T10:56:44.890Z,13.80
2023-04-29T10:59:14.950Z,13.80
2023-04-29T11:01:50.977Z,14.00
2023-04-29T11:04:20.326Z,14.20
2023-04-29T11:06:54.363Z,14.50
2023-04-29T11:09:25.644Z,14.70
2023-04-29T11:12:03.018Z,14.90
2023-04-29T11:14:38.814Z,14.90
2023-04-29T11:17:10.330Z,14.80
2023-04-29T11:19:42.686Z,14.80
2023-04-29T11:22:25.857Z,14.60
2023-04-29T11:24:56.201Z,14.70
2023-04-29T11:27:28.807Z,14.60
2023-04-29T11:29:59.244Z,14.60
2023-04-29T11:32:28.966Z,14.50
2023-04-29T11:35:07.986Z,14.30
2023-04-29T11:37:38.382Z,14.20
2023-04-29T11:40:07.793Z,14.20
2023-04-29T11:42:36.388Z,14.10
2023-04-29T11:45:04.561Z,14.20
2023-04-29T11:47:32.671Z,14.40
2023-04-29T11:50:05.437Z,14.60
2023-04-29T11:52:34.151Z,15.30
2023-04-29T11:55:03.912Z,16.00
2023-04-29T11:57:32.091Z,15.70
2023-04-29T12:00:00.310Z,15.50
2023-04-29T12:02:31.450Z,15.20
2023-04-29T12:05:01.197Z,14.90
2023-04-29T12:07:29.496Z,14.80
2023-04-29T12:09:57.843Z,14.70
2023-04-29T12:12:28.387Z,14.70
2023-04-29T12:14:56.690Z,14.80
2023-04-29T12:17:25.665Z,14.80
2023-04-29T12:19:53.696Z,15.50
2023-04-29T12:22:21.667Z,16.50
2023-04-29T12:24:50.787Z,17.10
2023-04-29T12:27:19.138Z,17.80
2023-04-29T12:29:48.385Z,18.10
2023-04-29T12:32:18.867Z,18.10
2023-04-29T12:34:47.843Z,17.50
2023-04-29T12:37:16.415Z,16.80
2023-04-29T12:39:44.380Z,16.60
2023-04-29T12:42:16.850Z,16.30
2023-04-29T12:44:48.186Z,16.20
2023-04-29T12:47:17.538Z,16.20
2023-04-29T12:49:47.512Z,16.20
2023-04-29T12:52:15.811Z,16.20
2023-04-29T12:54:44.388Z,16.20
2023-04-29T12:57:12.862Z,16.40
2023-04-29T12:59:41.079Z,16.50
2023-04-29T13:02:10.728Z,16.70
2023-04-29T13:04:39.983Z,16.70
2023-04-29T13:07:08.248Z,16.90
2023-04-29T13:09:38.048Z,16.90
2023-04-29T13:12:09.236Z,17.10
2023-04-29T13:14:37.434Z,17.20
2023-04-29T13:17:06.074Z,17.30
2023-04-29T13:22:07.648Z,17.20
2023-04-29T13:24:36.653Z,17.10
2023-04-29T13:27:05.590Z,17.10
2023-04-29T13:29:33.554Z,17.10
2023-04-29T13:32:01.540Z,17.10
2023-04-29T13:34:29.555Z,17.30
2023-04-29T13:36:58.766Z,17.30
2023-04-29T13:39:27.082Z,17.30
2023-04-29T13:41:58.947Z,17.40
2023-04-29T13:44:33.233Z,17.60
2023-04-29T13:47:07.608Z,17.40
2023-04-29T13:50:11.895Z,17.40
2023-04-29T13:55:33.056Z,17.10
2023-04-29T14:00:37.827Z,17.00
2023-04-29T14:03:04.301Z,16.90
2023-04-29T14:05:32.322Z,16.80
2023-04-29T14:08:01.832Z,16.90
2023-04-29T14:10:29.697Z,16.90
2023-04-29T14:12:57.539Z,17.10
2023-04-29T14:15:25.502Z,17.30
2023-04-29T14:17:53.456Z,17.90
2023-04-29T14:20:21.606Z,18.30
2023-04-29T14:22:49.436Z,18.50
2023-04-29T14:25:18.719Z,18.50
2023-04-29T14:27:47.763Z,18.40
2023-04-29T14:30:15.772Z,18.20
2023-04-29T14:32:43.655Z,18.20
2023-04-29T14:35:11.660Z,18.20
2023-04-29T14:37:39.562Z,18.40
2023-04-29T14:40:09.303Z,18.60
2023-04-29T14:42:38.501Z,18.70
2023-04-29T14:45:07.923Z,18.70
2023-04-29T14:47:35.825Z,18.60
2023-04-29T14:50:04.170Z,18.10
2023-04-29T14:52:32.026Z,17.90
2023-04-29T14:54:59.953Z,17.80
2023-04-29T14:57:27.825Z,17.50
2023-04-29T14:59:57.038Z,17.50
2023-04-29T15:02:25.554Z,17.50
2023-04-29T15:04:53.657Z,17.50
2023-04-29T15:07:22.675Z,17.40
2023-04-29T15:09:50.843Z,17.40
2023-04-29T15:12:19.920Z,17.40
2023-04-29T15:14:47.800Z,17.50
2023-04-29T15:17:16.993Z,17.50
2023-04-29T15:19:44.820Z,17.50
2023-04-29T15:22:12.834Z,17.60
2023-04-29T15:24:40.839Z,17.80
2023-04-29T15:27:08.685Z,17.70
2023-04-29T15:29:37.538Z,17.70
2023-04-29T15:32:06.159Z,17.60
2023-04-29T15:34:35.524Z,17.40
2023-04-29T15:37:03.366Z,17.30
2023-04-29T15:39:31.200Z,17.10
2023-04-29T15:42:00.317Z,17.00
2023-04-29T15:44:28.283Z,16.90
2023-04-29T15:46:56.232Z,16.80
2023-04-29T15:49:24.624Z,16.70
2023-04-29T15:51:54.121Z,16.60
2023-04-29T15:54:23.050Z,16.60
2023-04-29T15:56:51.053Z,16.50
2023-04-29T15:59:18.918Z,16.50
2023-04-29T16:01:46.848Z,16.50
2023-04-29T16:04:14.806Z,16.40
2023-04-29T16:06:42.823Z,16.30
2023-04-29T16:09:12.403Z,16.40
2023-04-29T16:11:40.280Z,16.50
2023-04-29T16:14:08.208Z,16.50
2023-04-29T16:16:36.123Z,16.60
2023-04-29T16:19:04.047Z,16.60
2023-04-29T16:21:32.839Z,16.70
2023-04-29T16:24:00.705Z,16.70
2023-04-29T16:26:30.259Z,16.70
2023-04-29T16:28:58.381Z,16.60
2023-04-29T16:31:27.744Z,16.50
2023-04-29T16:33:57.002Z,16.50
2023-04-29T16:36:24.902Z,16.50
2023-04-29T16:38:54.255Z,16.40
2023-04-29T16:41:22.642Z,16.40
2023-04-29T16:43:51.841Z,16.30
2023-04-29T16:46:19.942Z,16.20
2023-04-29T16:48:50.834Z,16.20
2023-04-29T16:51:19.035Z,16.20
2023-04-29T16:53:46.894Z,16.00
2023-04-29T16:56:14.734Z,15.90
2023-04-29T16:58:42.576Z,15.90
2023-04-29T17:01:12.125Z,15.90
2023-04-29T17:03:40.511Z,15.80
2023-04-29T17:06:08.627Z,15.80
2023-04-29T17:08:36.663Z,15.70
2023-04-29T17:11:06.237Z,15.70
2023-04-29T17:13:34.089Z,15.50
2023-04-29T17:16:01.983Z,15.50
2023-04-29T17:18:31.253Z,15.50
2023-04-29T17:20:59.126Z,15.60
2023-04-29T17:23:27.444Z,15.50
2023-04-29T17:25:57.030Z,15.50
2023-04-29T17:28:25.191Z,15.30
2023-04-29T17:30:55.643Z,15.30
2023-04-29T17:33:32.235Z,15.20
2023-04-29T17:36:02.069Z,15.20
2023-04-29T17:38:30.220Z,15.20
2023-04-29T17:40:58.101Z,15.10
2023-04-29T17:43:26.568Z,15.20
2023-04-29T17:45:55.014Z,15.20
2023-04-29T17:48:22.966Z,15.20
2023-04-29T17:50:50.861Z,15.30
2023-04-29T17:53:20.046Z,15.30
2023-04-29T17:55:47.926Z,15.30
2023-04-29T17:58:15.787Z,15.30
2023-04-29T18:00:43.770Z,15.20
2023-04-29T18:03:11.877Z,15.20
2023-04-29T18:05:39.919Z,15.20
2023-04-29T18:08:07.729Z,15.20
2023-04-29T18:10:36.933Z,15.20
2023-04-29T18:13:04.951Z,15.30
2023-04-29T18:15:32.991Z,15.30
2023-04-29T18:18:00.880Z,15.10
2023-04-29T18:20:28.809Z,15.20
2023-04-29T18:22:56.648Z,15.20
2023-04-29T18:25:24.691Z,15.20
2023-04-29T18:28:07.771Z,15.20
2023-04-29T18:30:43.490Z,15.10
2023-04-29T18:33:11.402Z,15.10
2023-04-29T18:35:39.310Z,15.10
2023-04-29T18:38:07.198Z,15.00
2023-04-29T18:40:36.814Z,15.00
2023-04-29T18:43:06.013Z,15.00
2023-04-29T18:45:33.987Z,14.90
2023-04-29T18:48:05.533Z,14.90
2023-04-29T18:50:33.633Z,14.80
2023-04-29T18:53:01.780Z,14.80
2023-04-29T18:55:30.562Z,14.80
2023-04-29T18:57:58.444Z,14.70
2023-04-29T19:00:27.782Z,14.80
2023-04-29T19:02:56.348Z,14.70
2023-04-29T19:05:24.426Z,14.60
2023-04-29T19:07:52.245Z,14.60
2023-04-29T19:10:20.340Z,14.60
2023-04-29T19:12:48.205Z,14.70
2023-04-29T19:15:17.593Z,14.60
2023-04-29T19:17:46.800Z,14.60
2023-04-29T19:20:14.671Z,14.70
2023-04-29T19:22:42.582Z,14.70
2023-04-29T19:25:11.094Z,14.70
2023-04-29T19:27:40.688Z,14.60
2023-04-29T19:30:09.567Z,14.60
2023-04-29T19:32:37.462Z,14.60
2023-04-29T19:35:07.541Z,14.50
2023-04-29T19:37:35.457Z,14.50
2023-04-29T19:40:03.984Z,14.50
2023-04-29T19:42:31.876Z,14.50
2023-04-29T19:44:59.806Z,14.50
2023-04-29T19:47:27.715Z,14.60
2023-04-29T19:49:55.892Z,14.60
2023-04-29T19:52:25.651Z,14.60
2023-04-29T19:54:53.573Z,14.60
2023-04-29T19:57:21.461Z,14.50
2023-04-29T19:59:49.306Z,14.50
2023-04-29T20:02:17.208Z,14.50
2023-04-29T20:04:45.065Z,14.50
2023-04-29T20:07:13.386Z,14.50
2023-04-29T20:09:44.923Z,14.50
2023-04-29T20:12:12.795Z,14.50
2023-04-29T20:14:41.187Z,14.50
2023-04-29T20:17:10.693Z,14.50
2023-04-29T20:19:38.564Z,14.40
2023-04-29T20:22:06.429Z,14.50
2023-04-29T20:24:34.321Z,14.40
2023-04-29T20:27:04.388Z,14.40
2023-04-29T20:29:32.574Z,14.40
2023-04-29T20:32:00.563Z,14.40
2023-04-29T20:34:28.388Z,14.30
2023-04-29T20:36:56.256Z,14.30
2023-04-29T20:39:24.979Z,14.30
2023-04-29T20:41:54.284Z,14.30
2023-04-29T20:44:23.508Z,14.30
2023-04-29T20:46:53.006Z,14.30
2023-04-29T20:49:21.010Z,14.30
2023-04-29T20:51:49.339Z,14.30
2023-04-29T20:54:17.274Z,14.30
2023-04-29T20:56:45.121Z,14.30
2023-04-29T20:59:12.947Z,14.30
2023-04-29T21:01:42.170Z,14.30
2023-04-29T21:04:10.142Z,14.30
2023-04-29T21:06:38.278Z,14.20
2023-04-29T21:09:06.246Z,14.20
2023-04-29T21:11:34.136Z,14.10
2023-04-29T21:14:02.048Z,14.10
2023-04-29T21:16:29.894Z,14.10
2023-04-29T21:18:59.132Z,14.20
2023-04-29T21:21:27.037Z,14.10
2023-04-29T21:23:55.072Z,14.10
2023-04-29T21:26:22.922Z,14.00
2023-04-29T21:28:51.247Z,14.00
2023-04-29T21:31:19.106Z,14.00
2023-04-29T21:33:47.287Z,14.00
2023-04-29T21:36:16.510Z,14.00
2023-04-29T21:38:44.445Z,14.00
2023-04-29T21:41:19.178Z,13.90
2023-04-29T21:43:47.162Z,14.00
2023-04-29T21:46:15.154Z,13.90
2023-04-29T21:48:43.444Z,13.90
2023-04-29T21:51:11.335Z,13.90
2023-04-29T21:53:41.479Z,13.90
2023-04-29T21:56:09.372Z,13.90
2023-04-29T21:58:37.553Z,13.90
